Time;durP1;ratioP1;P1;durP2;ratioP2;P2;SDS_P1;SDS_P2;PMS_P1;PMS_P2;Temp;Humidity;BMP_temperature;BMP_pressure;BME280_temperature;BME280_humidity;BME280_pressure;Samples;Min_cycle;Max_cycle;Signal;HPM_P1;HPM_P2
2023/03/09 00:00:27;;;;;;;6.88;3.22;;;;;;;12.49;100.00;101218.63;2094446;28;20405;-83
2023/03/09 00:01:51;;;;;;;14.15;4.50;;;;;;;12.43;100.00;101206.19;2093810;28;20049;-82
2023/03/09 00:03:15;;;;;;;9.93;3.25;;;;;;;12.40;100.00;101216.75;2086447;28;20049;-81
2023/03/09 00:04:38;;;;;;;8.38;3.22;;;;;;;12.40;100.00;101213.22;2086497;28;20139;-82
2023/03/09 00:05:59;;;;;;;7.22;2.75;;;;;;;12.37;100.00;101208.75;2086154;28;20064;-82
2023/03/09 00:07:22;;;;;;;7.20;2.13;;;;;;;12.33;100.00;101217.53;2086115;28;20051;-81
2023/03/09 00:08:43;;;;;;;8.93;2.88;;;;;;;12.31;100.00;101224.53;2082948;28;20060;-82
2023/03/09 00:10:06;;;;;;;5.60;2.30;;;;;;;12.30;100.00;101220.09;2094090;28;20083;-81
2023/03/09 00:11:27;;;;;;;5.78;2.55;;;;;;;12.28;100.00;101217.44;2088627;28;20116;-81
2023/03/09 00:12:49;;;;;;;6.85;1.70;;;;;;;12.25;100.00;101214.75;2094104;28;20125;-81
2023/03/09 00:14:12;;;;;;;5.75;2.15;;;;;;;12.22;100.00;101214.69;2088229;28;20439;-81
2023/03/09 00:15:35;;;;;;;8.30;2.35;;;;;;;12.21;100.00;101223.47;2086020;28;20505;-81
2023/03/09 00:16:58;;;;;;;8.93;2.72;;;;;;;12.18;100.00;101218.16;2086000;28;20055;-81
2023/03/09 00:18:20;;;;;;;8.55;2.67;;;;;;;12.16;100.00;101224.28;2078488;28;20042;-81
2023/03/09 00:19:42;;;;;;;7.47;2.20;;;;;;;12.12;100.00;101223.34;2093615;28;20043;-81
2023/03/09 00:21:04;;;;;;;7.82;2.13;;;;;;;12.11;100.00;101220.69;2090283;28;20040;-82
2023/03/09 00:22:26;;;;;;;10.65;2.72;;;;;;;12.09;100.00;101214.44;2081675;28;20049;-81
2023/03/09 00:23:47;;;;;;;8.27;1.95;;;;;;;12.06;100.00;101215.31;2085158;28;20045;-81
2023/03/09 00:25:13;;;;;;;5.90;2.03;;;;;;;12.04;100.00;101211.75;2095828;28;20074;-83
2023/03/09 00:26:38;;;;;;;8.63;2.28;;;;;;;12.03;100.00;101223.19;2090298;28;20049;-83
2023/03/09 00:28:01;;;;;;;7.35;2.70;;;;;;;12.00;100.00;101217.84;2096596;28;20041;-82
2023/03/09 00:29:24;;;;;;;5.97;2.08;;;;;;;11.97;100.00;101221.34;2081396;28;20140;-82
2023/03/09 00:30:49;;;;;;;10.25;2.78;;;;;;;11.93;100.00;101227.44;2087745;28;20041;-84
2023/03/09 00:32:12;;;;;;;9.02;4.10;;;;;;;11.93;100.00;101231.84;2096321;28;20052;-80
2023/03/09 00:33:33;;;;;;;13.45;3.45;;;;;;;11.95;100.00;101228.34;2090245;28;20056;-80
2023/03/09 00:34:56;;;;;;;7.85;2.45;;;;;;;12.01;100.00;101226.69;2079060;28;20046;-81
2023/03/09 00:36:18;;;;;;;8.30;2.80;;;;;;;12.07;100.00;101219.75;2093148;28;20059;-80
2023/03/09 00:37:40;;;;;;;11.60;2.75;;;;;;;12.12;100.00;101217.16;2081571;28;20052;-80
2023/03/09 00:39:02;;;;;;;4.32;1.90;;;;;;;12.15;100.00;101223.38;2085294;28;20170;-80
2023/03/09 00:40:25;;;;;;;;;;;;;;;12.10;100.00;101222.44;2079686;28;20053;-80
2023/03/09 00:41:47;;;;;;;9.48;1.90;;;;;;;12.12;100.00;101225.09;2084735;28;19936;-81
2023/03/09 00:43:08;;;;;;;8.43;2.33;;;;;;;12.12;100.00;101218.06;2079252;28;20053;-79
2023/03/09 00:44:31;;;;;;;9.82;2.13;;;;;;;12.12;100.00;101226.00;2092764;28;20060;-79
2023/03/09 00:45:54;;;;;;;4.78;1.63;;;;;;;12.15;100.00;101226.03;2081287;28;20171;-79
2023/03/09 00:47:16;;;;;;;6.82;2.17;;;;;;;12.13;100.00;101217.19;2079229;28;20532;-79
2023/03/09 00:48:37;;;;;;;6.05;1.80;;;;;;;12.15;100.00;101220.75;2089630;28;20044;-79
2023/03/09 00:50:00;;;;;;;12.05;2.25;;;;;;;12.14;100.00;101218.94;2086936;28;20080;-79
2023/03/09 00:51:21;;;;;;;8.15;1.80;;;;;;;12.16;100.00;101222.53;2084352;28;20057;-79
2023/03/09 00:52:44;;;;;;;5.18;1.88;;;;;;;12.18;100.00;101222.56;2084520;28;20045;-79
2023/03/09 00:54:07;;;;;;;6.18;1.90;;;;;;;12.21;100.00;101226.13;2092933;28;20040;-80
2023/03/09 00:55:28;;;;;;;8.68;2.33;;;;;;;12.24;100.00;101225.31;2087407;28;20053;-79
2023/03/09 00:56:51;;;;;;;11.60;2.85;;;;;;;12.25;100.00;101220.03;2095520;28;20041;-79
2023/03/09 00:58:12;;;;;;;8.93;3.03;;;;;;;12.26;100.00;101215.63;2086815;28;20052;-79
2023/03/09 00:59:35;;;;;;;12.10;2.10;;;;;;;12.25;100.00;101225.34;2092636;28;20551;-80
2023/03/09 01:00:59;;;;;;;21.58;13.52;;;;;;;12.24;100.00;101212.97;2086400;28;20095;-79
2023/03/09 01:02:23;;;;;;;28.13;19.42;;;;;;;12.24;100.00;101214.72;2088301;28;20052;-78
2023/03/09 01:03:45;;;;;;;14.40;5.65;;;;;;;12.24;100.00;101215.59;2087273;28;20146;-78
2023/03/09 01:05:09;;;;;;;11.73;5.07;;;;;;;12.23;100.00;101221.75;2078512;28;20045;-79
2023/03/09 01:06:32;;;;;;;9.85;3.78;;;;;;;12.23;100.00;101212.94;2076518;28;20080;-79
2023/03/09 01:07:54;;;;;;;7.28;2.33;;;;;;;12.20;100.00;101216.44;2092539;28;20040;-78
2023/03/09 01:09:17;;;;;;;7.20;2.00;;;;;;;12.18;100.00;101211.97;2089613;28;20270;-79
2023/03/09 01:10:38;;;;;;;8.50;2.72;;;;;;;12.16;100.00;101214.59;2092764;28;20041;-79
2023/03/09 01:12:01;;;;;;;9.55;2.33;;;;;;;12.14;100.00;101208.38;2086011;28;20056;-80
2023/03/09 01:13:22;;;;;;;8.98;2.08;;;;;;;12.17;100.00;101212.84;2086416;28;20064;-80
2023/03/09 01:14:44;;;;;;;6.40;2.22;;;;;;;12.17;100.00;101216.38;2083837;28;20053;-80
2023/03/09 01:16:07;;;;;;;9.75;2.10;;;;;;;12.19;100.00;101203.16;2086490;28;20504;-79
2023/03/09 01:17:30;;;;;;;9.02;1.98;;;;;;;12.20;100.00;101211.16;2083687;28;20053;-78
2023/03/09 01:18:52;;;;;;;7.38;1.70;;;;;;;12.21;100.00;101212.00;2091872;28;20040;-81
2023/03/09 01:20:14;;;;;;;8.25;2.25;;;;;;;12.25;100.00;101205.91;2089059;28;20049;-80
2023/03/09 01:21:36;;;;;;;5.05;1.92;;;;;;;12.29;100.00;101202.44;2092172;28;20131;-80
2023/03/09 01:22:58;;;;;;;8.73;2.25;;;;;;;12.35;100.00;101205.16;2094453;28;20641;-80
2023/03/09 01:24:21;;;;;;;10.93;2.33;;;;;;;12.40;100.00;101205.25;2086697;28;20036;-81
2023/03/09 01:25:42;;;;;;;6.78;2.08;;;;;;;12.45;100.00;101207.13;2091708;28;20056;-80
2023/03/09 01:27:05;;;;;;;5.13;2.28;;;;;;;12.47;100.00;101210.66;2089273;28;20437;-80
2023/03/09 01:28:26;;;;;;;8.98;2.22;;;;;;;12.51;100.00;101212.50;2094710;28;20478;-80
2023/03/09 01:29:49;;;;;;;6.30;1.73;;;;;;;12.53;100.00;101210.78;2094394;28;20083;-80
2023/03/09 01:31:14;;;;;;;6.18;1.75;;;;;;;12.60;100.00;101209.09;2088611;28;20057;-80
2023/03/09 01:32:37;;;;;;;4.25;1.70;;;;;;;12.63;100.00;101215.31;2083848;28;20425;-80
2023/03/09 01:33:59;;;;;;;9.30;2.08;;;;;;;12.68;100.00;101215.38;2089192;28;20052;-81
2023/03/09 01:35:20;;;;;;;5.82;1.75;;;;;;;12.74;100.00;101218.09;2092305;28;20052;-81
2023/03/09 01:36:43;;;;;;;5.70;1.40;;;;;;;12.81;100.00;101221.72;2086548;28;20055;-81
2023/03/09 01:38:05;;;;;;;8.20;1.90;;;;;;;12.84;100.00;101217.38;2092397;28;20040;-81
2023/03/09 01:39:28;;;;;;;12.65;2.25;;;;;;;12.87;100.00;101216.50;2086284;28;20099;-80
2023/03/09 01:40:50;;;;;;;8.57;1.83;;;;;;;12.89;100.00;101223.63;2083757;28;20075;-81
2023/03/09 01:42:12;;;;;;;7.28;1.65;;;;;;;12.89;100.00;101217.44;2083918;28;20048;-80
2023/03/09 01:43:39;;;;;;;4.10;1.90;;;;;;;12.88;100.00;101226.25;2092660;28;20052;-81
2023/03/09 01:45:27;;;;;;;7.30;2.00;;;;;;;12.86;100.00;101214.75;2089144;28;20386;-81
2023/03/09 01:46:54;;;;;;;5.88;1.80;;;;;;;12.82;100.00;101219.13;2088480;28;20041;-82
2023/03/09 01:48:16;;;;;;;10.07;2.13;;;;;;;12.75;100.00;101218.13;2076759;28;20452;-81
2023/03/09 01:49:45;;;;;;;11.23;2.28;;;;;;;12.69;100.00;101217.16;2081852;28;20075;-81
2023/03/09 01:51:06;;;;;;;6.82;1.63;;;;;;;12.65;100.00;101207.41;2085602;28;20044;-78
2023/03/09 01:52:33;;;;;;;7.55;2.00;;;;;;;12.65;100.00;101210.94;2091257;28;20437;-78
2023/03/09 01:53:58;;;;;;;6.90;1.70;;;;;;;12.63;100.00;101210.03;2086538;28;20049;-79
2023/03/09 01:55:23;;;;;;;6.28;2.10;;;;;;;12.64;100.00;101213.56;2084263;28;20037;-80
2023/03/09 01:56:48;;;;;;;7.30;2.28;;;;;;;12.64;100.00;101206.50;2088612;28;20109;-80
2023/03/09 01:58:16;;;;;;;7.25;2.10;;;;;;;12.67;100.00;101214.47;2084233;28;20037;-79
2023/03/09 01:59:39;;;;;;;8.07;2.03;;;;;;;12.73;100.00;101214.56;2085460;28;20060;-79
2023/03/09 02:01:01;;;;;;;8.95;1.80;;;;;;;12.79;100.00;101211.13;2086208;28;20049;-79
2023/03/09 02:02:30;;;;;;;6.70;1.98;;;;;;;12.86;100.00;101215.66;2083287;28;20060;-79
2023/03/09 02:03:59;;;;;;;5.78;1.77;;;;;;;12.89;100.00;101212.13;2085701;28;20497;-79
2023/03/09 02:05:27;;;;;;;6.75;1.75;;;;;;;12.92;100.00;101213.09;2084867;28;20140;-80
2023/03/09 02:06:49;;;;;;;5.60;1.75;;;;;;;12.96;100.00;101212.25;2093671;28;20139;-79
2023/03/09 02:08:14;;;;;;;6.95;3.40;;;;;;;12.97;100.00;101208.72;2080166;28;20209;-79
2023/03/09 02:09:43;;;;;;;5.35;1.73;;;;;;;12.99;100.00;101212.28;2084524;28;20040;-80
2023/03/09 02:11:09;;;;;;;4.22;1.67;;;;;;;12.98;100.00;101215.81;2036544;28;1374640;-79
2023/03/09 02:12:35;;;;;;;7.25;1.90;;;;;;;12.95;100.00;101215.75;2080929;28;20124;-79
2023/03/09 02:13:57;;;;;;;5.68;1.90;;;;;;;12.94;100.00;101210.44;2086672;28;20139;-79
2023/03/09 02:15:20;;;;;;;5.97;1.50;;;;;;;12.93;100.00;101208.69;2080746;28;20060;-79
2023/03/09 02:16:42;;;;;;;5.63;1.30;;;;;;;12.91;100.00;101213.94;2086910;28;20041;-79
2023/03/09 02:18:05;;;;;;;8.07;1.83;;;;;;;12.91;100.00;101200.69;2094472;28;20052;-79
2023/03/09 02:19:51;;;;;;;6.70;1.80;;;;;;;12.91;100.00;101206.00;2089297;28;20072;-79
2023/03/09 02:21:24;;;;;;;7.55;2.40;;;;;;;12.89;100.00;101199.78;2089129;28;20073;-80
2023/03/09 02:22:47;;;;;;;;;;;;;;;12.85;100.00;101202.38;2088350;28;20041;-80
2023/03/09 02:24:13;;;;;;;;;;;;;;;12.82;100.00;101197.91;2081415;28;19944;-79
2023/03/09 02:25:41;;;;;;;7.70;1.88;;;;;;;12.86;100.00;101194.47;2087370;28;19975;-79
2023/03/09 02:27:13;;;;;;;6.18;2.05;;;;;;;12.86;100.00;101194.47;2087591;28;20040;-80
2023/03/09 02:28:36;;;;;;;6.05;1.52;;;;;;;12.87;100.00;101195.31;2087203;28;20144;-79
2023/03/09 02:29:58;;;;;;;5.35;1.55;;;;;;;12.86;100.00;101196.22;2086234;28;20697;-78
2023/03/09 02:31:25;;;;;;;6.45;1.48;;;;;;;12.88;100.00;101191.81;2086914;28;20496;-79
2023/03/09 02:32:48;;;;;;;9.95;3.17;;;;;;;12.88;100.00;101191.81;2088685;28;20067;-80
2023/03/09 02:34:09;;;;;;;5.95;1.70;;;;;;;12.92;100.00;101188.34;2086146;28;20631;-79
2023/03/09 02:35:32;;;;;;;7.05;1.90;;;;;;;12.93;100.00;101195.44;2086355;28;20041;-79
2023/03/09 02:36:54;;;;;;;7.97;1.70;;;;;;;12.92;100.00;101198.94;2078086;28;20041;-79
2023/03/09 02:38:17;;;;;;;5.60;1.52;;;;;;;12.89;100.00;101198.88;2078396;28;20045;-79
2023/03/09 02:39:45;;;;;;;5.72;2.17;;;;;;;12.91;100.00;101197.16;2075487;28;20084;-78
2023/03/09 02:41:11;;;;;;;7.57;2.42;;;;;;;12.91;100.00;101205.09;2076381;28;20041;-79
2023/03/09 02:42:35;;;;;;;7.40;1.80;;;;;;;12.90;100.00;101204.22;2084301;28;20056;-79
2023/03/09 02:43:59;;;;;;;7.35;2.28;;;;;;;12.90;100.00;101200.69;2086390;28;20045;-79
2023/03/09 02:45:23;;;;;;;9.15;1.88;;;;;;;12.89;100.00;101207.72;2086797;28;20477;-79
2023/03/09 02:46:46;;;;;;;6.55;1.55;;;;;;;12.89;100.00;101202.44;2077987;28;20057;-79
2023/03/09 02:48:08;;;;;;;6.60;2.00;;;;;;;12.89;100.00;101198.88;2078029;28;20139;-79
2023/03/09 02:49:30;;;;;;;7.85;2.60;;;;;;;12.89;100.00;101206.84;2083471;28;20048;-79
2023/03/09 02:50:53;;;;;;;6.15;1.83;;;;;;;12.90;100.00;101201.56;2086032;28;20421;-79
2023/03/09 02:52:14;;;;;;;11.43;2.70;;;;;;;12.90;100.00;101209.50;2077841;28;20072;-78
2023/03/09 02:53:37;;;;;;;7.80;1.90;;;;;;;12.87;100.00;101205.91;2083172;28;20583;-77
2023/03/09 02:54:58;;;;;;;7.93;1.50;;;;;;;12.86;100.00;101204.16;2077754;28;20056;-78
2023/03/09 02:56:21;;;;;;;6.25;1.77;;;;;;;12.85;100.00;101202.38;2083339;28;20135;-79
2023/03/09 02:57:44;;;;;;;4.53;1.70;;;;;;;12.85;100.00;101197.97;2085897;28;20044;-80
2023/03/09 02:59:09;;;;;;;6.38;1.95;;;;;;;12.83;100.00;101193.50;2086900;28;20068;-79
2023/03/09 03:00:32;;;;;;;7.80;2.35;;;;;;;12.83;100.00;101202.34;2094460;28;20043;-79
2023/03/09 03:01:54;;;;;;;8.73;1.88;;;;;;;12.83;100.00;101199.69;2083163;28;20041;-81
2023/03/09 03:03:19;;;;;;;;;;;;;;;12.76;100.00;101203.13;2084166;28;20081;-77
2023/03/09 03:04:43;;;;;;;5.50;1.80;;;;;;;12.78;100.00;101204.06;2083839;28;19968;-79
2023/03/09 03:06:06;;;;;;;7.03;1.95;;;;;;;12.84;100.00;101213.84;2091305;28;20475;-79
2023/03/09 03:07:28;;;;;;;9.50;1.73;;;;;;;12.86;100.00;101199.75;2086308;28;20048;-80
2023/03/09 03:08:50;;;;;;;7.35;1.92;;;;;;;12.87;100.00;101206.81;2083791;28;20079;-80
2023/03/09 03:10:13;;;;;;;8.82;2.20;;;;;;;12.90;100.00;101200.69;2083423;28;20053;-79
2023/03/09 03:11:36;;;;;;;5.60;1.23;;;;;;;12.88;100.00;101205.94;2086140;28;20497;-81
2023/03/09 03:13:00;;;;;;;9.02;2.22;;;;;;;12.88;100.00;101205.94;2077625;28;20069;-79
2023/03/09 03:14:21;;;;;;;6.57;1.40;;;;;;;12.89;100.00;101196.25;2091707;28;20040;-80
2023/03/09 03:15:44;;;;;;;7.30;2.05;;;;;;;12.89;100.00;101206.84;2080197;28;20041;-79
2023/03/09 03:17:05;;;;;;;8.27;1.77;;;;;;;12.90;100.00;101203.31;2078052;28;20425;-78
2023/03/09 03:18:28;;;;;;;7.30;1.80;;;;;;;12.89;100.00;101194.47;2083182;28;20082;-79
2023/03/09 03:19:50;;;;;;;4.32;2.25;;;;;;;12.87;100.00;101198.84;2086103;28;20128;-80
2023/03/09 03:21:11;;;;;;;8.60;2.05;;;;;;;12.83;100.00;101198.81;2086209;28;20158;-79
2023/03/09 03:22:36;;;;;;;7.88;2.33;;;;;;;12.76;100.00;101196.06;2086059;28;20060;-81
2023/03/09 03:23:58;;;;;;;7.68;1.63;;;;;;;12.69;100.00;101196.88;2088610;28;20059;-79
2023/03/09 03:25:23;;;;;;;7.28;1.90;;;;;;;12.65;100.00;101196.81;2086090;28;20044;-80
2023/03/09 03:26:46;;;;;;;8.15;2.38;;;;;;;12.62;100.00;101194.09;2086053;28;20517;-80
2023/03/09 03:28:14;;;;;;;11.35;2.33;;;;;;;12.59;100.00;101194.06;2078319;28;20081;-79
2023/03/09 03:29:36;;;;;;;6.72;1.80;;;;;;;12.56;100.00;101201.97;2075607;28;20549;-80
2023/03/09 03:30:59;;;;;;;4.80;1.90;;;;;;;12.52;100.00;101203.69;2083110;28;20044;-79
2023/03/09 03:32:22;;;;;;;5.40;1.77;;;;;;;12.51;100.00;101198.38;2085735;28;20041;-79
2023/03/09 03:33:43;;;;;;;7.38;1.88;;;;;;;12.48;100.00;101196.53;2086098;28;20052;-78
2023/03/09 03:35:07;;;;;;;7.30;1.90;;;;;;;12.46;100.00;101190.38;2077631;28;20046;-80
2023/03/09 03:36:33;;;;;;;6.78;1.90;;;;;;;12.43;100.00;101195.59;2086638;28;20045;-79
2023/03/09 03:37:55;;;;;;;6.43;1.90;;;;;;;12.42;100.00;101196.47;2077328;28;20053;-79
2023/03/09 03:39:18;;;;;;;9.13;2.55;;;;;;;12.37;100.00;101199.06;2085588;28;20458;-77
2023/03/09 03:40:41;;;;;;;8.77;2.10;;;;;;;12.32;100.00;101192.81;2077887;28;20075;-78
2023/03/09 03:42:05;;;;;;;5.93;1.67;;;;;;;12.27;100.00;101197.09;2077607;28;20099;-79
2023/03/09 03:43:28;;;;;;;6.75;2.05;;;;;;;12.25;100.00;101192.69;2083215;28;20164;-78
2023/03/09 03:44:51;;;;;;;7.32;1.77;;;;;;;12.18;100.00;101196.09;2077816;28;20045;-79
2023/03/09 03:46:15;;;;;;;8.75;2.05;;;;;;;12.13;100.00;101196.03;2083491;28;20120;-79
2023/03/09 03:47:38;;;;;;;6.60;1.90;;;;;;;12.12;100.00;101204.81;2077467;28;20050;-78
2023/03/09 03:49:00;;;;;;;7.30;2.30;;;;;;;12.11;100.00;101200.41;2082620;28;20105;-79
2023/03/09 03:50:23;;;;;;;7.43;2.15;;;;;;;12.14;100.00;101199.56;2077611;28;20083;-79
2023/03/09 03:51:51;;;;;;;7.78;2.60;;;;;;;12.17;100.00;101215.47;2084713;28;20048;-78
2023/03/09 03:53:14;;;;;;;10.80;2.60;;;;;;;12.21;100.00;101202.31;2077337;28;20053;-78
2023/03/09 03:54:36;;;;;;;6.60;2.28;;;;;;;12.28;100.00;101208.59;2074967;28;20133;-79
2023/03/09 03:56:00;;;;;;;7.53;2.20;;;;;;;12.32;100.00;101213.09;2083158;28;20072;-78
2023/03/09 03:57:22;;;;;;;8.52;2.40;;;;;;;12.37;100.00;101217.59;2077827;28;20072;-80
2023/03/09 03:58:47;;;;;;;7.15;2.95;;;;;;;12.43;100.00;101218.53;2086264;28;20065;-81
2023/03/09 04:00:11;;;;;;;8.80;2.70;;;;;;;12.45;100.00;101219.47;2077717;28;20365;-82
2023/03/09 04:01:34;;;;;;;7.35;2.90;;;;;;;12.45;100.00;101215.06;2083670;28;20052;-80
2023/03/09 04:03:00;;;;;;;6.97;2.28;;;;;;;12.44;100.00;101212.38;2086534;28;20037;-80
2023/03/09 04:04:40;;;;;;;9.43;2.38;;;;;;;12.42;100.00;101212.34;2087940;28;20038;-80
2023/03/09 04:06:04;;;;;;;8.50;2.38;;;;;;;12.40;100.00;101214.09;2083641;28;20037;-80
2023/03/09 04:07:27;;;;;;;;;;;;;;;12.33;100.00;101222.81;2091958;28;20044;-81
2023/03/09 04:08:50;;;;;;;5.32;2.28;;;;;;;12.30;100.00;101217.47;2085594;28;20606;-81
2023/03/09 04:10:11;;;;;;;10.65;2.85;;;;;;;12.30;100.00;101213.06;2083258;28;20676;-81
2023/03/09 04:11:38;;;;;;;6.20;3.08;;;;;;;12.31;100.00;101221.88;2078364;28;20894;-81
2023/03/09 04:13:02;;;;;;;13.68;3.33;;;;;;;12.32;100.00;101216.63;2075538;28;20041;-80
2023/03/09 04:14:26;;;;;;;11.75;4.53;;;;;;;12.34;100.00;101224.56;2083457;28;20053;-87
2023/03/09 04:15:49;;;;;;;7.03;3.03;;;;;;;12.33;100.00;101221.06;2078041;28;20125;-88
2023/03/09 04:17:11;;;;;;;10.30;2.90;;;;;;;12.35;100.00;101221.06;2086244;28;20688;-86
2023/03/09 04:18:32;;;;;;;19.02;6.53;;;;;;;12.34;100.00;101219.28;2077803;28;20095;-85
2023/03/09 04:19:55;;;;;;;18.10;7.65;;;;;;;12.32;100.00;101221.91;2083441;28;20115;-86
2023/03/09 04:21:17;;;;;;;23.27;11.73;;;;;;;12.30;100.00;101212.16;2077615;28;20164;-88
2023/03/09 04:22:41;;;;;;;14.15;5.30;;;;;;;12.28;100.00;101219.19;2078131;28;20060;-85
2023/03/09 04:24:05;;;;;;;10.90;3.80;;;;;;;12.28;100.00;101219.19;2083628;28;20045;-84
2023/03/09 04:25:27;;;;;;;9.82;3.70;;;;;;;12.28;100.00;101219.19;2086270;28;20044;-84
2023/03/09 04:26:49;;;;;;;8.18;2.72;;;;;;;12.28;100.00;101221.81;2077964;28;20057;-84
2023/03/09 04:28:31;;;;;;;15.15;3.00;;;;;;;12.26;100.00;101218.28;2087986;28;20064;-86
2023/03/09 04:29:55;;;;;;;7.65;2.70;;;;;;;12.25;100.00;101217.41;2085439;28;20147;-82
2023/03/09 04:31:20;;;;;;;5.25;2.05;;;;;;;12.22;100.00;101214.69;2077743;28;20129;-82
2023/03/09 04:32:42;;;;;;;7.18;2.80;;;;;;;12.21;100.00;101227.88;2082757;28;20053;-79
2023/03/09 04:34:03;;;;;;;8.15;2.30;;;;;;;12.19;100.00;101221.69;2085622;28;20045;-81
2023/03/09 04:35:26;;;;;;;9.65;2.47;;;;;;;12.16;100.00;101224.28;2077335;28;20045;-81
2023/03/09 04:36:50;;;;;;;9.88;2.60;;;;;;;12.13;100.00;101225.13;2091805;28;20052;-79
2023/03/09 04:38:12;;;;;;;5.78;2.78;;;;;;;12.10;100.00;101225.06;2079752;28;20124;-79
2023/03/09 04:39:35;;;;;;;7.95;3.08;;;;;;;12.08;100.00;101221.50;2083263;28;20041;-80
2023/03/09 04:40:58;;;;;;;8.90;3.03;;;;;;;12.06;100.00;101223.25;2069470;28;20100;-80
2023/03/09 04:42:19;;;;;;;6.93;2.35;;;;;;;12.05;100.00;101225.88;2088801;28;20122;-80
2023/03/09 04:43:43;;;;;;;9.93;3.50;;;;;;;12.03;100.00;101228.47;2080061;28;20531;-80
2023/03/09 04:45:07;;;;;;;9.27;3.10;;;;;;;12.02;100.00;101231.97;2075122;28;20083;-80
2023/03/09 04:46:29;;;;;;;8.93;2.70;;;;;;;12.00;100.00;101239.03;2083499;28;20144;-81
2023/03/09 04:47:55;;;;;;;8.05;2.72;;;;;;;11.97;100.00;101234.56;2078069;28;20046;-81
2023/03/09 04:49:18;;;;;;;12.68;2.63;;;;;;;11.96;100.00;101237.16;2077412;28;20053;-80
2023/03/09 04:50:40;;;;;;;7.60;2.65;;;;;;;11.95;100.00;101240.69;2075013;28;20052;-80
2023/03/09 04:52:02;;;;;;;7.68;2.72;;;;;;;11.94;100.00;101249.50;2083029;28;20037;-79
2023/03/09 04:53:24;;;;;;;7.45;2.08;;;;;;;11.93;100.00;101238.03;2085562;28;20132;-81
2023/03/09 04:54:48;;;;;;;10.45;2.55;;;;;;;11.94;100.00;101249.50;2093895;28;20536;-81
2023/03/09 04:56:11;;;;;;;12.45;2.40;;;;;;;11.95;100.00;101246.84;2079791;28;20111;-80
2023/03/09 04:57:40;;;;;;;7.35;2.35;;;;;;;11.94;100.00;101250.41;2085155;28;20045;-80
2023/03/09 04:59:03;;;;;;;7.25;2.50;;;;;;;11.96;100.00;101253.94;2077504;28;20049;-80
2023/03/09 05:00:28;;;;;;;10.48;2.97;;;;;;;11.98;100.00;101252.22;2077561;28;20114;-81
2023/03/09 05:01:50;;;;;;;10.65;3.15;;;;;;;12.01;100.00;101255.78;2083664;28;20037;-80
2023/03/09 05:03:17;;;;;;;8.30;2.38;;;;;;;12.04;100.00;101250.53;2077530;28;20040;-79
2023/03/09 05:04:43;;;;;;;9.05;2.78;;;;;;;12.06;100.00;101249.72;2093762;28;20048;-81
2023/03/09 05:06:06;;;;;;;10.00;2.65;;;;;;;12.07;100.00;101259.44;2081824;28;20581;-80
2023/03/09 05:07:29;;;;;;;10.60;3.22;;;;;;;12.09;100.00;101255.03;2076792;28;20524;-78
2023/03/09 05:08:53;;;;;;;10.98;4.68;;;;;;;12.12;100.00;101264.81;2076562;28;20688;-80
2023/03/09 05:10:15;;;;;;;10.38;3.92;;;;;;;12.16;100.00;101261.34;2084578;28;20052;-80
2023/03/09 05:11:40;;;;;;;12.73;4.55;;;;;;;12.16;100.00;101263.97;2078659;28;20056;-80
2023/03/09 05:13:03;;;;;;;12.32;3.53;;;;;;;12.17;100.00;101258.72;2076265;28;20037;-80
2023/03/09 05:14:28;;;;;;;11.02;3.65;;;;;;;12.19;100.00;101256.09;2085153;28;20045;-80
2023/03/09 05:15:52;;;;;;;15.55;5.97;;;;;;;12.20;100.00;101265.84;2087242;28;20063;-81
2023/03/09 05:17:13;;;;;;;12.35;5.18;;;;;;;12.21;100.00;101263.19;2086906;28;20117;-80
2023/03/09 05:18:37;;;;;;;12.40;5.10;;;;;;;12.21;100.00;101268.47;2078951;28;20053;-80
2023/03/09 05:19:59;;;;;;;14.38;6.38;;;;;;;12.22;100.00;101272.91;2076252;28;20083;-80
2023/03/09 05:21:21;;;;;;;14.00;5.95;;;;;;;12.26;100.00;101273.88;2076441;28;20057;-80
2023/03/09 05:22:45;;;;;;;12.93;5.72;;;;;;;12.29;100.00;101279.19;2076403;28;20065;-80
2023/03/09 05:24:08;;;;;;;11.73;4.95;;;;;;;12.29;100.00;101271.25;2084301;28;20056;-80
2023/03/09 05:25:31;;;;;;;11.90;3.78;;;;;;;12.33;100.00;101276.66;2081533;28;20523;-80
2023/03/09 05:26:54;;;;;;;10.98;4.13;;;;;;;12.35;100.00;101280.19;2093141;28;20048;-79
2023/03/09 05:28:19;;;;;;;10.98;4.55;;;;;;;12.38;100.00;101282.91;2080386;28;20049;-80
2023/03/09 05:29:42;;;;;;;8.88;3.47;;;;;;;12.40;100.00;101279.41;2084372;28;20568;-80
2023/03/09 05:31:09;;;;;;;7.95;3.33;;;;;;;12.44;100.00;101282.13;2078852;28;20045;-79
2023/03/09 05:32:32;;;;;;;10.40;4.13;;;;;;;12.47;100.00;101286.59;2085206;28;20083;-79
2023/03/09 05:33:54;;;;;;;8.75;4.00;;;;;;;12.53;100.00;101292.88;2078845;28;20624;-80
2023/03/09 05:35:16;;;;;;;12.75;6.18;;;;;;;12.58;100.00;101296.47;2076482;28;20053;-80
2023/03/09 05:36:38;;;;;;;12.05;5.65;;;;;;;12.63;100.00;101294.78;2092453;28;20072;-80
2023/03/09 05:38:05;;;;;;;8.57;4.82;;;;;;;12.73;100.00;101296.69;2081089;28;20064;-79
2023/03/09 05:39:27;;;;;;;12.50;5.57;;;;;;;12.90;100.00;101304.00;2084524;28;20063;-80
2023/03/09 05:40:50;;;;;;;11.85;5.68;;;;;;;13.06;100.00;101313.97;2086781;28;20414;-80
2023/03/09 05:42:12;;;;;;;8.57;4.40;;;;;;;13.22;100.00;101320.41;2078735;28;20113;-81
2023/03/09 05:43:36;;;;;;;11.48;5.28;;;;;;;13.30;100.00;101324.06;2078970;28;20082;-79
2023/03/09 05:44:59;;;;;;;11.13;5.57;;;;;;;13.31;100.00;101321.44;2084018;28;20044;-80
2023/03/09 05:46:23;;;;;;;13.65;5.30;;;;;;;13.40;100.00;101315.34;2081294;28;20053;-80
2023/03/09 05:47:45;;;;;;;9.55;3.90;;;;;;;13.51;100.00;101314.63;2076440;28;20128;-79
2023/03/09 05:49:08;;;;;;;9.80;3.60;;;;;;;13.63;100.00;101318.28;2076003;28;20045;-80
2023/03/09 05:50:31;;;;;;;5.75;2.33;;;;;;;13.76;100.00;101314.91;2076119;28;20049;-79
2023/03/09 05:51:55;;;;;;;6.63;2.58;;;;;;;13.94;100.00;101315.09;2076637;28;20477;-79
2023/03/09 05:53:18;;;;;;;7.85;2.28;;;;;;;14.12;100.00;101319.72;2078613;28;20048;-80
2023/03/09 05:54:42;;;;;;;6.18;2.30;;;;;;;14.30;100.00;101315.50;2087063;28;20053;-80
2023/03/09 05:56:08;;;;;;;7.28;2.53;;;;;;;14.46;100.00;101320.97;2079035;28;20037;-80
2023/03/09 05:57:29;;;;;;;10.90;3.00;;;;;;;14.57;100.00;101311.34;2080213;28;20054;-79
2023/03/09 05:58:52;;;;;;;7.05;2.85;;;;;;;14.65;100.00;101309.59;2075809;28;20076;-80
2023/03/09 06:00:20;;;;;;;11.15;2.90;;;;;;;14.74;100.00;101307.91;2077345;28;20667;-80
2023/03/09 06:01:52;;;;;;;7.65;3.78;;;;;;;14.89;100.00;101311.56;2080001;28;20506;-80
2023/03/09 06:03:19;;;;;;;10.45;4.03;;;;;;;15.08;100.00;101309.03;2085268;28;20045;-79
2023/03/09 06:04:49;;;;;;;10.82;3.80;;;;;;;15.31;100.00;101314.47;2087620;28;20102;-79
2023/03/09 06:06:13;;;;;;;9.90;3.75;;;;;;;15.51;100.00;101318.09;2092875;28;20105;-80
2023/03/09 06:07:37;;;;;;;11.23;3.38;;;;;;;15.71;100.00;101310.22;2086599;28;20045;-79
2023/03/09 06:08:59;;;;;;;10.80;3.50;;;;;;;15.90;100.00;101304.06;2089417;28;20053;-79
2023/03/09 06:10:22;;;;;;;8.77;2.85;;;;;;;16.10;100.00;101300.56;2083231;28;20083;-80
2023/03/09 06:11:43;;;;;;;10.32;3.53;;;;;;;16.18;100.00;101294.38;2083917;28;20080;-79
2023/03/09 06:13:06;;;;;;;13.18;3.90;;;;;;;16.20;100.00;101297.94;2083804;28;20044;-79
2023/03/09 06:14:27;;;;;;;13.02;5.80;;;;;;;16.25;100.00;101305.94;2084149;28;20140;-80
2023/03/09 06:15:49;;;;;;;12.43;5.45;;;;;;;16.27;100.00;101298.84;2082644;28;20083;-80
2023/03/09 06:17:14;;;;;;;8.23;4.15;;;;;;;16.28;100.00;101300.59;2084063;28;20044;-80
2023/03/09 06:18:37;;;;;;;8.98;4.63;;;;;;;16.30;100.00;101304.16;2084341;28;20037;-80
2023/03/09 06:20:01;;;;;;;11.00;5.10;;;;;;;16.33;100.00;101304.16;2084080;28;20056;-80
2023/03/09 06:21:24;;;;;;;14.40;5.78;;;;;;;16.35;100.00;101305.03;2084279;28;20076;-80
2023/03/09 06:22:47;;;;;;;12.05;6.38;;;;;;;16.36;100.00;101301.47;2086359;28;20362;-80
2023/03/09 06:24:10;;;;;;;12.20;6.28;;;;;;;16.41;100.00;101301.50;2086562;28;20059;-80